createdAt,value
2022-09-30T00:01:46.571Z,100451.56
2022-09-30T00:04:16.196Z,100456.81
2022-09-30T00:06:44.605Z,100439.03
2022-09-30T00:09:14.370Z,100457.38
2022-09-30T00:11:43.858Z,100463.59
2022-09-30T00:14:16.195Z,100472.38
2022-09-30T00:16:45.172Z,100458.00
2022-09-30T00:19:13.400Z,100466.19
2022-09-30T00:21:41.549Z,100462.63
2022-09-30T00:24:09.520Z,100466.19
2022-09-30T00:26:38.977Z,100458.00
2022-09-30T00:29:07.529Z,100463.34
2022-09-30T00:31:36.566Z,100465.91
2022-09-30T00:34:08.151Z,100467.75
2022-09-30T00:36:38.761Z,100461.38
2022-09-30T00:39:08.208Z,100466.75
2022-09-30T00:41:37.302Z,100465.91
2022-09-30T00:44:38.440Z,100468.59
2022-09-30T00:47:25.820Z,100470.53
2022-09-30T00:49:54.496Z,100473.47
2022-09-30T00:52:22.601Z,100470.78
2022-09-30T00:54:51.354Z,100471.78
2022-09-30T00:57:19.440Z,100476.41
2022-09-30T00:59:51.622Z,100481.66
2022-09-30T01:02:21.437Z,100479.09
2022-09-30T01:04:49.524Z,100475.59
2022-09-30T01:07:17.485Z,100485.47
2022-09-30T01:09:45.760Z,100474.84
2022-09-30T01:12:17.630Z,100481.06
2022-09-30T01:14:51.181Z,100453.94
2022-09-30T01:17:29.953Z,100481.06
2022-09-30T01:20:44.610Z,100489.25
2022-09-30T01:23:42.765Z,100487.53
2022-09-30T01:26:31.001Z,100493.75
2022-09-30T01:29:43.093Z,100495.72
2022-09-30T01:32:22.930Z,100489.50
2022-09-30T01:35:00.118Z,100492.31
2022-09-30T01:37:39.852Z,100490.34
2022-09-30T01:40:22.197Z,100489.63
2022-09-30T01:42:57.715Z,100493.88
2022-09-30T01:45:35.106Z,100505.91
2022-09-30T01:48:13.812Z,100501.31
2022-09-30T01:50:51.213Z,100508.00
2022-09-30T01:53:25.672Z,100504.31
2022-09-30T01:55:57.560Z,100498.94
2022-09-30T01:58:33.892Z,100510.28
2022-09-30T02:01:07.233Z,100511.97
2022-09-30T02:03:39.899Z,100511.72
2022-09-30T02:06:12.088Z,100512.56
2022-09-30T02:08:46.284Z,100519.66
2022-09-30T02:11:17.625Z,100506.25
2022-09-30T02:13:52.946Z,100515.03
2022-09-30T02:16:24.964Z,100511.50
2022-09-30T02:18:58.697Z,100506.25
2022-09-30T02:21:33.545Z,100483.50
2022-09-30T02:24:07.661Z,100522.22
2022-09-30T02:26:38.924Z,100520.41
2022-09-30T02:29:12.165Z,100523.81
2022-09-30T02:31:43.616Z,100504.19
2022-09-30T02:34:17.063Z,100522.94
2022-09-30T02:36:50.823Z,100532.72
2022-09-30T02:39:26.983Z,100521.25
2022-09-30T02:42:02.488Z,100515.75
2022-09-30T02:44:31.888Z,100533.91
2022-09-30T02:47:13.045Z,100523.09
2022-09-30T02:49:49.458Z,100531.13
2022-09-30T02:52:25.988Z,100532.22
2022-09-30T02:55:03.575Z,100528.81
2022-09-30T02:57:40.884Z,100521.97
2022-09-30T03:00:12.915Z,100529.91
2022-09-30T03:02:41.561Z,100535.28
2022-09-30T03:05:12.021Z,100537.09
2022-09-30T03:07:41.477Z,100534.66
2022-09-30T03:10:14.737Z,100534.53
2022-09-30T03:12:58.296Z,100534.81
2022-09-30T03:15:39.855Z,100541.00
2022-09-30T03:18:30.894Z,100549.19
2022-09-30T03:21:09.819Z,100535.06
2022-09-30T03:23:58.808Z,100544.94
2022-09-30T03:26:38.243Z,100532.63
2022-09-30T03:29:15.216Z,100536.28
2022-09-30T03:31:53.776Z,100538.09
2022-09-30T03:34:33.164Z,100532.00
2022-09-30T03:37:12.880Z,100536.53
2022-09-30T03:39:54.482Z,100539.19
2022-09-30T03:42:29.099Z,100539.34
2022-09-30T03:45:02.534Z,100538.22
2022-09-30T03:47:35.719Z,100547.84
2022-09-30T03:50:08.761Z,100545.91
2022-09-30T03:52:38.491Z,100550.28
2022-09-30T03:55:11.549Z,100550.03
2022-09-30T03:57:39.724Z,100553.69
2022-09-30T04:00:08.992Z,100557.97
2022-09-30T04:02:37.916Z,100565.03
2022-09-30T04:05:07.514Z,100556.84
2022-09-30T04:07:37.150Z,100559.53
2022-09-30T04:10:06.601Z,100556.84
2022-09-30T04:12:34.450Z,100570.25
2022-09-30T04:15:02.391Z,100568.44
2022-09-30T04:17:30.249Z,100570.97
2022-09-30T04:19:58.167Z,100566.72
2022-09-30T04:22:26.690Z,100572.94
2022-09-30T04:24:56.015Z,100572.94
2022-09-30T04:27:24.276Z,100582.00
2022-09-30T04:29:52.121Z,100587.34
2022-09-30T04:32:20.033Z,100587.34
2022-09-30T04:34:47.901Z,100589.19
2022-09-30T04:37:15.757Z,100597.34
2022-09-30T04:39:44.282Z,100586.75
2022-09-30T04:42:13.651Z,100596.59
2022-09-30T04:44:41.524Z,100596.84
2022-09-30T04:47:09.536Z,100605.03
2022-09-30T04:49:37.493Z,100611.59
2022-09-30T04:52:05.416Z,100612.72
2022-09-30T04:54:33.280Z,100615.66
2022-09-30T04:57:01.146Z,100622.00
2022-09-30T04:59:30.372Z,100622.13
2022-09-30T05:01:58.309Z,100625.03
2022-09-30T05:04:26.313Z,100622.47
2022-09-30T05:06:54.301Z,100624.44
2022-09-30T05:09:22.497Z,100623.72
2022-09-30T05:11:50.636Z,100626.63
2022-09-30T05:14:18.780Z,100629.44
2022-09-30T05:16:48.009Z,100626.75
2022-09-30T05:19:15.860Z,100636.88
2022-09-30T05:21:44.923Z,100634.28
2022-09-30T05:24:12.930Z,100639.78
2022-09-30T05:26:41.257Z,100640.03
2022-09-30T05:29:10.841Z,100646.09
2022-09-30T05:31:38.887Z,100643.56
2022-09-30T05:34:08.220Z,100645.28
2022-09-30T05:36:36.182Z,100639.66
2022-09-30T05:39:04.158Z,100649.88
2022-09-30T05:41:32.772Z,100641.97
2022-09-30T05:44:01.279Z,100647.56
2022-09-30T05:46:29.248Z,100643.94
2022-09-30T05:48:57.295Z,100640.84
2022-09-30T05:51:27.423Z,100651.97
2022-09-30T05:53:55.329Z,100649.53
2022-09-30T05:56:23.185Z,100648.56
2022-09-30T05:58:51.397Z,100654.75
2022-09-30T06:01:19.286Z,100653.66
2022-09-30T06:03:48.021Z,100656.09
2022-09-30T06:06:17.029Z,100663.03
2022-09-30T06:08:47.020Z,100676.22
2022-09-30T06:11:17.331Z,100677.81
2022-09-30T06:13:47.346Z,100675.84
2022-09-30T06:16:15.894Z,100677.56
2022-09-30T06:18:43.876Z,100690.00
2022-09-30T06:21:13.649Z,100676.47
2022-09-30T06:23:42.281Z,100648.06
2022-09-30T06:26:14.350Z,100682.47
2022-09-30T06:28:43.333Z,100679.00
2022-09-30T06:31:11.434Z,100679.63
2022-09-30T06:33:39.518Z,100685.00
2022-09-30T06:36:07.448Z,100684.88
2022-09-30T06:38:37.234Z,100689.28
2022-09-30T06:41:05.824Z,100691.94
2022-09-30T06:43:41.677Z,100699.91
2022-09-30T06:46:18.839Z,100698.91
2022-09-30T06:48:48.378Z,100692.69
2022-09-30T06:51:17.084Z,100701.47
2022-09-30T06:53:45.022Z,100696.94
2022-09-30T06:56:13.137Z,100702.31
2022-09-30T06:58:45.324Z,100701.34
2022-09-30T07:01:15.302Z,100699.53
2022-09-30T07:03:45.934Z,100695.03
2022-09-30T07:06:16.091Z,100680.75
2022-09-30T07:08:44.020Z,100701.97
2022-09-30T07:11:14.683Z,100708.06
2022-09-30T07:13:45.227Z,100710.59
2022-09-30T07:16:13.820Z,100710.50
2022-09-30T07:18:43.694Z,100707.81
2022-09-30T07:21:13.613Z,100709.41
2022-09-30T07:23:45.682Z,100705.88
2022-09-30T07:26:13.760Z,100700.34
2022-09-30T07:28:43.796Z,100711.72
2022-09-30T07:31:31.861Z,100711.84
2022-09-30T07:34:01.198Z,100718.78
2022-09-30T07:36:33.190Z,100718.53
2022-09-30T07:39:06.326Z,100722.19
2022-09-30T07:41:36.637Z,100717.06
2022-09-30T07:44:07.229Z,100722.94
2022-09-30T07:46:38.870Z,100724.88
2022-09-30T07:49:12.727Z,100726.56
2022-09-30T07:51:44.105Z,100723.88
2022-09-30T07:54:15.114Z,100721.22
2022-09-30T07:59:36.184Z,100731.94
2022-09-30T08:02:05.357Z,100733.66
2022-09-30T08:04:33.249Z,100733.66
2022-09-30T08:07:03.513Z,100734.38
2022-09-30T08:09:32.221Z,100737.06
2022-09-30T08:12:00.265Z,100736.34
2022-09-30T08:14:29.101Z,100745.00
2022-09-30T08:17:00.394Z,100740.47
2022-09-30T08:19:29.972Z,100745.00
2022-09-30T08:21:58.636Z,100748.66
2022-09-30T08:24:27.685Z,100746.94
2022-09-30T08:26:55.866Z,100753.41
2022-09-30T08:32:13.254Z,100762.69
2022-09-30T08:34:41.177Z,100757.31
2022-09-30T08:37:10.225Z,100764.41
2022-09-30T08:39:38.574Z,100756.34
2022-09-30T08:42:35.961Z,100757.06
2022-09-30T08:45:13.376Z,100761.44
2022-09-30T08:47:51.908Z,100755.13
2022-09-30T08:50:30.029Z,100747.78
2022-09-30T08:53:02.434Z,100756.56
2022-09-30T08:55:39.652Z,100741.84
2022-09-30T08:58:12.592Z,100751.84
2022-09-30T09:00:42.994Z,100751.75
2022-09-30T09:03:15.393Z,100753.44
2022-09-30T09:05:52.741Z,100750.75
2022-09-30T09:08:30.516Z,100755.16
2022-09-30T09:11:03.215Z,100756.13
2022-09-30T09:13:46.291Z,100751.63
2022-09-30T09:16:23.733Z,100744.44
2022-09-30T09:19:11.278Z,100748.69
2022-09-30T09:21:53.541Z,100748.56
2022-09-30T09:24:25.114Z,100750.38
2022-09-30T09:26:55.117Z,100747.59
2022-09-30T09:29:41.883Z,100752.84
2022-09-30T09:32:15.658Z,100744.91
2022-09-30T09:34:46.157Z,100743.91
2022-09-30T09:37:43.656Z,100747.38
2022-09-30T09:40:15.365Z,100756.38
2022-09-30T09:43:03.192Z,100762.47
2022-09-30T09:45:39.560Z,100760.78
2022-09-30T09:48:11.998Z,100753.44
2022-09-30T09:50:50.743Z,100776.63
2022-09-30T09:53:43.275Z,100770.50
2022-09-30T09:56:22.113Z,100777.84
2022-09-30T09:59:10.780Z,100784.06
2022-09-30T10:01:41.329Z,100780.53
2022-09-30T10:04:22.049Z,100715.00
2022-09-30T10:06:54.553Z,100785.03
2022-09-30T10:09:31.837Z,100793.94
2022-09-30T10:12:30.440Z,100790.53
2022-09-30T10:15:01.629Z,100772.66
2022-09-30T10:17:31.872Z,100787.00
2022-09-30T10:20:07.853Z,100741.69
2022-09-30T10:22:37.878Z,100782.47
2022-09-30T10:25:26.561Z,100785.28
2022-09-30T10:27:57.633Z,100793.22
2022-09-30T10:30:39.412Z,100787.63
2022-09-30T10:33:16.172Z,100793.81
2022-09-30T10:36:14.713Z,100793.81
2022-09-30T10:39:05.951Z,100787.38
2022-09-30T10:41:37.021Z,100792.59
2022-09-30T10:44:08.571Z,100780.78
2022-09-30T10:46:40.440Z,100782.50
2022-09-30T10:49:11.893Z,100783.09
2022-09-30T10:51:40.374Z,100787.50
2022-09-30T10:54:36.798Z,100788.94
2022-09-30T10:57:05.230Z,100791.63
2022-09-30T10:59:38.318Z,100793.09
2022-09-30T11:05:02.986Z,100786.88
2022-09-30T11:07:38.097Z,100774.78
2022-09-30T11:10:15.301Z,100789.31
2022-09-30T11:12:48.192Z,100778.56
2022-09-30T11:15:23.377Z,100779.53
2022-09-30T11:17:57.380Z,100787.50
2022-09-30T11:20:29.493Z,100780.25
2022-09-30T11:23:03.899Z,100777.56
2022-09-30T11:25:42.200Z,100773.31
2022-09-30T11:28:31.922Z,100774.66
2022-09-30T11:31:09.483Z,100774.66
2022-09-30T11:33:49.413Z,100784.41
2022-09-30T11:36:24.734Z,100779.06
2022-09-30T11:39:06.805Z,100782.59
2022-09-30T11:41:40.251Z,100755.03
2022-09-30T11:44:23.144Z,100768.91
2022-09-30T11:47:10.574Z,100773.44
2022-09-30T11:49:49.170Z,100769.91
2022-09-30T11:52:23.540Z,100770.00
2022-09-30T11:55:06.526Z,100773.44
2022-09-30T11:57:42.768Z,100779.63
2022-09-30T12:00:17.331Z,100780.63
2022-09-30T12:02:48.928Z,100781.50
2022-09-30T12:05:21.566Z,100781.34
2022-09-30T12:07:53.707Z,100784.03
2022-09-30T12:10:26.618Z,100778.69
2022-09-30T12:13:02.666Z,100785.00
2022-09-30T12:15:32.406Z,100786.13
2022-09-30T12:18:02.878Z,100787.97
2022-09-30T12:20:34.994Z,100789.66
2022-09-30T12:23:12.584Z,100786.00
2022-09-30T12:25:44.886Z,100791.47
2022-09-30T12:28:44.013Z,100786.97
2022-09-30T12:31:37.228Z,100785.03
2022-09-30T12:34:19.097Z,100801.00
2022-09-30T12:37:01.978Z,100801.63
2022-09-30T12:40:08.658Z,100800.53
2022-09-30T12:43:09.806Z,100811.00
2022-09-30T12:46:10.552Z,100801.97
2022-09-30T12:48:43.407Z,100798.31
2022-09-30T12:51:22.397Z,100797.31
2022-09-30T12:53:55.494Z,100780.16
2022-09-30T12:56:29.790Z,100797.81
2022-09-30T12:59:00.544Z,100801.25
2022-09-30T13:01:32.810Z,100791.72
2022-09-30T13:04:19.063Z,100800.97
2022-09-30T13:07:07.166Z,100799.13
2022-09-30T13:09:37.055Z,100792.91
2022-09-30T13:12:25.337Z,100787.44
2022-09-30T13:15:23.979Z,100788.28
2022-09-30T13:17:53.357Z,100786.56
2022-09-30T13:20:55.155Z,100789.97
2022-09-30T13:23:39.153Z,100791.81
2022-09-30T13:26:46.389Z,100787.44
2022-09-30T13:29:38.234Z,100786.56
2022-09-30T13:32:10.737Z,100797.31
2022-09-30T13:34:56.799Z,100790.22
2022-09-30T13:37:40.632Z,100772.28
2022-09-30T13:40:37.831Z,100778.50
2022-09-30T13:43:18.861Z,100775.81
2022-09-30T13:45:48.900Z,100780.34
2022-09-30T13:48:21.270Z,100771.41
2022-09-30T13:50:52.832Z,100780.47
2022-09-30T13:53:30.298Z,100777.78
2022-09-30T13:56:02.494Z,100776.78
2022-09-30T13:59:09.911Z,100778.66
2022-09-30T14:01:56.446Z,100776.69
2022-09-30T14:04:51.477Z,100776.22
2022-09-30T14:07:33.053Z,100777.91
2022-09-30T14:10:20.132Z,100777.91
2022-09-30T14:13:11.751Z,100777.78
2022-09-30T14:16:14.256Z,100775.34
2022-09-30T14:19:10.678Z,100779.13
2022-09-30T14:21:43.436Z,100780.25
2022-09-30T14:24:15.072Z,100779.38
2022-09-30T14:26:58.921Z,100782.06
2022-09-30T14:29:36.040Z,100776.59
2022-09-30T14:32:12.885Z,100772.81
2022-09-30T14:34:42.004Z,100771.94
2022-09-30T14:37:19.377Z,100776.31
2022-09-30T14:39:50.033Z,100781.69
2022-09-30T14:42:25.848Z,100768.41
2022-09-30T14:44:56.774Z,100771.94
2022-09-30T14:47:26.817Z,100770.22
2022-09-30T14:49:54.942Z,100765.84
2022-09-30T14:52:37.992Z,100767.53
2022-09-30T14:55:22.081Z,100769.50
2022-09-30T14:57:50.549Z,100758.16
2022-09-30T15:00:32.719Z,100765.25
2022-09-30T15:03:01.111Z,100765.34
2022-09-30T15:05:29.664Z,100760.97
2022-09-30T15:07:57.622Z,100763.91
2022-09-30T15:10:26.921Z,100768.41
2022-09-30T15:12:56.081Z,100764.16
2022-09-30T15:15:35.598Z,100761.72
2022-09-30T15:18:28.691Z,100760.03
2022-09-30T15:21:00.049Z,100760.25
2022-09-30T15:23:32.044Z,100765.63
2022-09-30T15:26:02.239Z,100767.59
2022-09-30T15:28:30.256Z,100772.22
2022-09-30T15:30:59.938Z,100766.00
2022-09-30T15:33:31.982Z,100740.84
2022-09-30T15:36:08.290Z,100757.81
2022-09-30T15:38:38.517Z,100757.09
2022-09-30T15:41:10.102Z,100721.09
2022-09-30T15:43:41.640Z,100755.38
2022-09-30T15:46:27.441Z,100754.66
2022-09-30T15:48:57.508Z,100759.31
2022-09-30T15:51:34.706Z,100755.75
2022-09-30T15:54:17.529Z,100756.84
2022-09-30T15:56:46.858Z,100751.59
2022-09-30T15:59:15.588Z,100750.88
2022-09-30T16:01:45.665Z,100751.00
2022-09-30T16:04:24.646Z,100741.38
2022-09-30T16:06:55.251Z,100738.06
2022-09-30T16:09:29.106Z,100740.13
2022-09-30T16:12:06.484Z,100748.31
2022-09-30T16:14:42.268Z,100749.56
2022-09-30T16:17:19.112Z,100753.06
2022-09-30T16:19:52.297Z,100756.03
2022-09-30T16:22:49.504Z,100754.44
2022-09-30T16:25:21.618Z,100756.50
2022-09-30T16:27:57.748Z,100765.41
2022-09-30T16:30:26.295Z,100747.31
2022-09-30T16:32:58.185Z,100757.66
2022-09-30T16:35:28.345Z,100765.84
2022-09-30T16:38:01.331Z,100728.28
2022-09-30T16:40:30.550Z,100765.22
2022-09-30T16:43:01.392Z,100756.81
2022-09-30T16:45:31.264Z,100778.06
2022-09-30T16:48:01.542Z,100769.13
2022-09-30T16:50:34.551Z,100768.28
2022-09-30T16:53:02.440Z,100769.28
2022-09-30T16:55:30.835Z,100775.69
2022-09-30T16:58:00.565Z,100773.66
2022-09-30T17:00:29.770Z,100719.13
2022-09-30T17:02:57.917Z,100763.28
2022-09-30T17:05:27.341Z,100763.03
2022-09-30T17:07:56.631Z,100757.78
2022-09-30T17:10:28.909Z,100761.47
2022-09-30T17:12:57.623Z,100746.22
2022-09-30T17:15:28.101Z,100755.72
2022-09-30T17:17:56.199Z,100755.84
2022-09-30T17:20:24.546Z,100762.41
2022-09-30T17:22:52.586Z,100767.91
2022-09-30T17:25:20.601Z,100762.41
2022-09-30T17:27:50.078Z,100774.88
2022-09-30T17:30:18.540Z,100768.66
2022-09-30T17:32:48.118Z,100758.78
2022-09-30T17:35:16.787Z,100774.88
2022-09-30T17:37:46.511Z,100766.94
2022-09-30T17:40:32.422Z,100740.69
2022-09-30T17:43:10.950Z,100771.81
2022-09-30T17:45:40.388Z,100763.88
2022-09-30T17:48:10.646Z,100772.91
2022-09-30T17:50:39.690Z,100769.47
2022-09-30T17:53:07.844Z,100766.06
2022-09-30T17:55:36.186Z,100767.16
2022-09-30T17:58:04.190Z,100765.56
2022-09-30T18:00:33.620Z,100764.81
2022-09-30T18:03:02.800Z,100763.13
2022-09-30T18:05:33.189Z,100761.53
2022-09-30T18:08:01.147Z,100764.22
2022-09-30T18:10:29.140Z,100761.78
2022-09-30T18:12:57.186Z,100757.38
2022-09-30T18:15:27.068Z,100761.16
2022-09-30T18:17:55.032Z,100759.47
2022-09-30T18:20:25.422Z,100759.56
2022-09-30T18:22:55.094Z,100753.34
2022-09-30T18:25:23.206Z,100751.66
2022-09-30T18:27:53.270Z,100749.56
2022-09-30T18:30:21.821Z,100747.75
2022-09-30T18:32:50.557Z,100745.91
2022-09-30T18:35:20.428Z,100744.97
2022-09-30T18:37:49.812Z,100745.06
2022-09-30T18:40:21.091Z,100740.56
2022-09-30T18:42:49.638Z,100733.34
2022-09-30T18:45:17.656Z,100745.06
2022-09-30T18:47:45.838Z,100753.09
2022-09-30T18:50:17.260Z,100747.00
2022-09-30T18:52:45.293Z,100759.47
2022-09-30T18:55:13.492Z,100756.78
2022-09-30T18:57:43.113Z,100747.97
2022-09-30T19:00:12.237Z,100751.66
2022-09-30T19:02:41.174Z,100747.97
2022-09-30T19:05:10.216Z,100751.66
2022-09-30T19:07:39.612Z,100748.97
2022-09-30T19:10:09.893Z,100753.69
2022-09-30T19:12:39.217Z,100743.72
2022-09-30T19:15:13.125Z,100742.00
2022-09-30T19:17:41.656Z,100745.66
2022-09-30T19:20:09.938Z,100712.97
2022-09-30T19:22:38.551Z,100741.16
2022-09-30T19:25:08.070Z,100732.03
2022-09-30T19:27:37.786Z,100730.19
2022-09-30T19:30:11.547Z,100709.59
2022-09-30T19:32:40.875Z,100723.84
2022-09-30T19:35:11.823Z,100718.47
2022-09-30T19:37:55.532Z,100723.03
2022-09-30T19:40:28.167Z,100718.75
2022-09-30T19:42:56.124Z,100712.53
2022-09-30T19:45:26.400Z,100716.16
2022-09-30T19:47:54.963Z,100708.25
2022-09-30T19:50:23.005Z,100710.22
2022-09-30T19:52:57.282Z,100701.41
2022-09-30T19:55:26.569Z,100704.94
2022-09-30T19:57:54.845Z,100708.59
2022-09-30T20:00:22.819Z,100702.41
2022-09-30T20:02:52.716Z,100703.38
2022-09-30T20:05:21.610Z,100695.47
2022-09-30T20:07:51.153Z,100701.78
2022-09-30T20:10:19.494Z,100691.91
2022-09-30T20:12:47.944Z,100700.91
2022-09-30T20:15:33.162Z,100693.00
2022-09-30T20:18:02.456Z,100692.28
2022-09-30T20:20:37.297Z,100691.41
2022-09-30T20:23:05.580Z,100691.41
2022-09-30T20:25:35.472Z,100687.75
2022-09-30T20:28:04.833Z,100684.97
2022-09-30T20:30:33.274Z,100677.88
2022-09-30T20:33:02.888Z,100677.66
2022-09-30T20:35:30.791Z,100671.34
2022-09-30T20:37:58.727Z,100673.16
2022-09-30T20:40:26.669Z,100670.47
2022-09-30T20:43:00.666Z,100670.47
2022-09-30T20:45:29.329Z,100674.84
2022-09-30T20:47:57.274Z,100670.34
2022-09-30T20:50:39.398Z,100670.25
2022-09-30T20:53:09.766Z,100656.94
2022-09-30T20:55:40.277Z,100655.84
2022-09-30T20:58:09.793Z,100656.94
2022-09-30T21:00:39.884Z,100665.72
2022-09-30T21:03:09.902Z,100669.38
2022-09-30T21:05:39.542Z,100658.53
2022-09-30T21:08:07.496Z,100664.97
2022-09-30T21:10:36.996Z,100656.94
2022-09-30T21:13:10.179Z,100654.16
2022-09-30T21:15:38.412Z,100645.50
2022-09-30T21:18:06.530Z,100645.38
2022-09-30T21:20:34.595Z,100645.38
2022-09-30T21:23:04.198Z,100651.47
2022-09-30T21:25:32.506Z,100648.81
2022-09-30T21:28:00.420Z,100647.81
2022-09-30T21:30:28.966Z,100641.47
2022-09-30T21:32:56.881Z,100636.13
2022-09-30T21:35:24.760Z,100645.03
2022-09-30T21:37:52.709Z,100636.13
2022-09-30T21:40:21.968Z,100638.66
2022-09-30T21:42:49.845Z,100636.00
2022-09-30T21:45:20.079Z,100635.16
2022-09-30T21:47:48.027Z,100636.13
2022-09-30T21:50:16.073Z,100630.75
2022-09-30T21:52:44.048Z,100626.38
2022-09-30T21:55:13.351Z,100637.94
2022-09-30T21:57:43.351Z,100629.03
2022-09-30T22:00:12.333Z,100628.19
2022-09-30T22:02:43.728Z,100630.03
2022-09-30T22:05:12.121Z,100627.34
2022-09-30T22:07:40.116Z,100625.63
2022-09-30T22:10:08.953Z,100628.19
2022-09-30T22:12:36.829Z,100627.34
2022-09-30T22:15:07.157Z,100626.38
2022-09-30T22:17:35.081Z,100626.50
2022-09-30T22:20:02.974Z,100623.69
2022-09-30T22:22:30.890Z,100629.03
2022-09-30T22:24:58.746Z,100620.16
2022-09-30T22:27:26.733Z,100635.16
2022-09-30T22:29:54.588Z,100620.28
2022-09-30T22:32:23.881Z,100618.94
2022-09-30T22:35:09.072Z,100617.13
2022-09-30T22:37:54.373Z,100615.53
2022-09-30T22:40:22.337Z,100616.13
2022-09-30T22:42:50.384Z,100609.81
2022-09-30T22:45:18.281Z,100609.66
2022-09-30T22:47:47.532Z,100607.75
2022-09-30T22:50:15.938Z,100601.53
2022-09-30T22:52:43.792Z,100607.63
2022-09-30T22:55:11.683Z,100599.56
2022-09-30T22:57:39.548Z,100602.97
2022-09-30T23:00:08.311Z,100602.25
2022-09-30T23:02:36.313Z,100602.25
2022-09-30T23:05:06.758Z,100604.78
2022-09-30T23:07:34.647Z,100604.78
2022-09-30T23:10:02.924Z,100599.44
2022-09-30T23:12:32.367Z,100597.84
2022-09-30T23:15:00.244Z,100598.47
2022-09-30T23:17:28.131Z,100592.88
2022-09-30T23:19:56.005Z,100590.06
2022-09-30T23:22:25.261Z,100588.22
2022-09-30T23:24:53.101Z,100590.66
2022-09-30T23:27:20.992Z,100582.50
2022-09-30T23:29:48.865Z,100586.88
2022-09-30T23:32:16.931Z,100589.56
2022-09-30T23:34:44.906Z,100590.28
2022-09-30T23:37:12.777Z,100592.97
2022-09-30T23:39:42.045Z,100580.44
2022-09-30T23:42:09.909Z,100584.06
2022-09-30T23:44:37.785Z,100572.53
2022-09-30T23:47:21.599Z,100576.03
2022-09-30T23:49:50.463Z,100577.88
2022-09-30T23:52:18.582Z,100568.97
2022-09-30T23:54:48.201Z,100566.16
2022-09-30T23:57:16.068Z,100564.47
2022-09-30T23:59:43.945Z,100567.16
